Time;durP1;ratioP1;P1;durP2;ratioP2;P2;SDS_P1;SDS_P2;PMS_P1;PMS_P2;Temp;Humidity;BMP_temperature;BMP_pressure;BME280_temperature;BME280_humidity;BME280_pressure;Samples;Min_cycle;Max_cycle;Signal;HPM_P1;HPM_P2
2022/07/07 00:01:35;;;;;;;3.13;2.47;;;19.90;99.90;;;;;;5014096;28;20268;-81
2022/07/07 00:04:02;;;;;;;5.20;2.10;;;19.90;99.90;;;;;;5014327;28;20191;-81
2022/07/07 00:06:28;;;;;;;2.60;2.40;;;19.90;99.90;;;;;;5015307;28;20694;-81
2022/07/07 00:08:54;;;;;;;4.87;2.60;;;19.90;99.90;;;;;;5029634;28;20468;-81
2022/07/07 00:11:21;;;;;;;5.07;2.60;;;19.90;99.90;;;;;;5013271;28;20436;-81
2022/07/07 00:13:46;;;;;;;3.93;2.50;;;19.90;99.90;;;;;;5013504;28;20514;-81
2022/07/07 00:16:12;;;;;;;4.73;3.13;;;19.80;99.90;;;;;;5011817;28;20704;-81
2022/07/07 00:18:38;;;;;;;4.60;2.33;;;19.80;99.90;;;;;;5013447;28;20668;-81
2022/07/07 00:21:04;;;;;;;4.10;2.77;;;19.80;99.90;;;;;;5015088;28;20418;-81
2022/07/07 00:23:30;;;;;;;3.50;3.20;;;19.80;99.90;;;;;;5022947;28;20435;-81
2022/07/07 00:25:56;;;;;;;4.70;2.93;;;19.80;99.90;;;;;;5012815;28;20586;-81
2022/07/07 00:28:22;;;;;;;7.23;3.00;;;19.80;99.90;;;;;;5016378;28;20431;-81
2022/07/07 00:30:47;;;;;;;7.03;3.13;;;19.70;99.90;;;;;;5015063;28;20203;-81
2022/07/07 00:33:13;;;;;;;4.70;3.10;;;19.70;99.90;;;;;;5010933;28;20183;-81
2022/07/07 00:35:38;;;;;;;4.03;3.17;;;19.70;99.90;;;;;;5013910;28;20699;-81
2022/07/07 00:38:04;;;;;;;8.80;3.63;;;19.70;99.90;;;;;;5011985;28;20179;-81
2022/07/07 00:40:30;;;;;;;8.23;3.80;;;19.60;99.90;;;;;;5013727;28;20200;-81
2022/07/07 00:42:57;;;;;;;4.40;3.53;;;19.70;99.90;;;;;;5013566;28;20263;-81
2022/07/07 00:45:23;;;;;;;5.60;3.30;;;19.60;99.90;;;;;;5012566;28;20549;-81
2022/07/07 00:47:49;;;;;;;5.80;3.60;;;19.60;99.90;;;;;;5007716;28;20469;-81
2022/07/07 00:50:15;;;;;;;3.90;3.23;;;19.60;99.90;;;;;;5009624;28;20468;-81
2022/07/07 00:52:40;;;;;;;9.20;3.60;;;19.50;99.90;;;;;;5011283;28;20183;-81
2022/07/07 00:55:10;;;;;;;3.70;2.97;;;19.50;99.90;;;;;;5013400;28;20206;-81
2022/07/07 00:57:36;;;;;;;4.57;3.40;;;19.50;99.90;;;;;;5013311;28;20674;-81
2022/07/07 01:00:13;;;;;;;6.23;2.87;;;19.50;99.90;;;;;;5006090;28;20434;-81
2022/07/07 01:02:39;;;;;;;5.30;3.70;;;19.50;99.90;;;;;;5011463;28;20849;-81
2022/07/07 01:05:06;;;;;;;5.00;3.80;;;19.50;99.90;;;;;;5013072;28;20458;-81
2022/07/07 01:07:33;;;;;;;3.50;3.20;;;19.50;99.90;;;;;;5004582;28;20452;-81
2022/07/07 01:10:00;;;;;;;5.57;3.60;;;19.50;99.90;;;;;;5014445;28;20516;-81
2022/07/07 01:12:32;;;;;;;6.43;4.40;;;19.50;99.90;;;;;;5015662;28;20428;-81
2022/07/07 01:14:57;;;;;;;5.33;4.10;;;19.50;99.90;;;;;;5012306;28;20464;-81
2022/07/07 01:17:23;;;;;;;4.77;4.33;;;19.50;99.90;;;;;;5011985;28;20434;-81
2022/07/07 01:19:48;;;;;;;4.03;3.63;;;19.50;99.90;;;;;;5012230;28;20678;-81
2022/07/07 01:22:15;;;;;;;3.97;3.40;;;19.40;99.90;;;;;;5011004;28;20201;-81
2022/07/07 01:24:41;;;;;;;5.30;4.13;;;19.40;1.00;;;;;;5014396;28;20215;-81
2022/07/07 01:27:18;;;;;;;5.60;4.20;;;19.40;1.00;;;;;;5013834;28;20450;-80
2022/07/07 01:29:48;;;;;;;7.03;3.97;;;19.40;1.00;;;;;;5013682;28;20577;-81
2022/07/07 01:32:15;;;;;;;6.30;4.43;;;19.40;1.00;;;;;;5011781;28;20442;-80
2022/07/07 01:34:42;;;;;;;4.20;3.80;;;19.30;1.00;;;;;;5012880;28;20507;-80
2022/07/07 01:37:08;;;;;;;4.77;3.83;;;19.30;1.00;;;;;;5026796;28;20430;-80
2022/07/07 01:39:35;;;;;;;7.37;4.10;;;19.30;11.40;;;;;;5015268;28;20949;-81
2022/07/07 01:42:00;;;;;;;6.87;4.77;;;19.20;62.00;;;;;;5017149;28;20193;-81
2022/07/07 01:44:26;;;;;;;5.43;4.20;;;19.20;99.90;;;;;;5016606;28;20525;-80
2022/07/07 01:46:52;;;;;;;5.80;4.37;;;19.20;99.90;;;;;;5014875;28;20253;-80
2022/07/07 01:49:18;;;;;;;4.40;3.77;;;19.20;99.90;;;;;;5011336;28;20248;-80
2022/07/07 01:51:44;;;;;;;6.17;3.70;;;19.10;99.90;;;;;;5013170;28;20444;-81
2022/07/07 01:54:10;;;;;;;4.80;3.70;;;19.10;99.90;;;;;;5014675;28;20437;-81
2022/07/07 01:56:36;;;;;;;7.67;4.37;;;19.10;99.90;;;;;;5030276;28;20618;-81
2022/07/07 01:59:02;;;;;;;4.57;4.10;;;19.10;99.90;;;;;;5014465;28;20449;-82
2022/07/07 02:01:27;;;;;;;9.67;4.40;;;19.10;1.00;;;;;;5016002;28;20771;-81
2022/07/07 02:03:53;;;;;;;5.73;4.10;;;19.10;1.00;;;;;;5013276;28;20487;-81
2022/07/07 02:06:19;;;;;;;5.27;4.33;;;19.00;1.00;;;;;;5016688;28;20396;-81
2022/07/07 02:08:44;;;;;;;8.77;5.10;;;19.00;1.00;;;;;;5020227;28;20250;-82
2022/07/07 02:11:13;;;;;;;5.53;4.30;;;19.00;1.00;;;;;;5017979;28;20175;-82
2022/07/07 02:13:42;;;;;;;5.53;4.50;;;19.00;1.00;;;;;;5018890;28;20185;-81
2022/07/07 02:16:08;;;;;;;10.77;4.70;;;19.00;1.00;;;;;;5011240;28;20457;-81
2022/07/07 02:18:35;;;;;;;7.50;4.40;;;19.00;1.00;;;;;;5013785;28;20942;-82
2022/07/07 02:21:02;;;;;;;6.73;4.40;;;19.00;1.00;;;;;;5019301;28;20453;-82
2022/07/07 02:23:27;;;;;;;5.70;3.90;;;18.90;1.00;;;;;;5018577;28;20444;-83
2022/07/07 02:25:53;;;;;;;5.10;4.10;;;18.90;1.00;;;;;;5018229;28;20471;-81
2022/07/07 02:28:20;;;;;;;7.30;3.97;;;18.90;1.00;;;;;;5017347;28;20844;-81
2022/07/07 02:30:46;;;;;;;6.40;4.13;;;18.90;1.00;;;;;;5017469;28;20211;-82
2022/07/07 02:33:12;;;;;;;5.93;4.03;;;18.90;1.00;;;;;;5018904;28;20438;-82
2022/07/07 02:35:38;;;;;;;5.27;4.17;;;18.90;1.00;;;;;;5018472;28;20465;-82
2022/07/07 02:38:03;;;;;;;4.10;3.70;;;18.90;1.00;;;;;;5018415;28;20785;-82
2022/07/07 02:40:29;;;;;;;5.73;4.30;;;18.90;1.00;;;;;;5019206;28;20194;-82
2022/07/07 02:42:54;;;;;;;5.27;3.73;;;18.90;1.00;;;;;;5019921;28;20187;-82
2022/07/07 02:45:20;;;;;;;6.97;3.23;;;18.90;1.00;;;;;;5018556;28;20273;-83
2022/07/07 02:47:46;;;;;;;4.00;3.70;;;19.00;1.00;;;;;;5018754;28;20849;-82
2022/07/07 02:50:11;;;;;;;4.73;3.53;;;19.00;1.00;;;;;;5014964;28;20281;-81
2022/07/07 02:52:37;;;;;;;7.00;3.87;;;19.00;1.00;;;;;;5015787;28;20202;-82
2022/07/07 02:55:02;;;;;;;4.40;3.90;;;19.00;1.00;;;;;;5018428;28;20278;-82
2022/07/07 02:57:28;;;;;;;4.60;3.80;;;19.00;1.00;;;;;;5017521;28;20187;-82
2022/07/07 02:59:53;;;;;;;9.10;4.00;;;19.00;1.00;;;;;;5018973;28;20187;-82
2022/07/07 03:02:19;;;;;;;5.37;4.10;;;19.00;1.00;;;;;;5020377;28;20191;-82
2022/07/07 03:04:44;;;;;;;6.17;3.93;;;19.00;1.00;;;;;;5019588;28;20611;-82
2022/07/07 03:07:10;;;;;;;6.60;3.93;;;19.00;1.00;;;;;;5019828;28;20198;-81
2022/07/07 03:09:36;;;;;;;5.97;3.80;;;19.00;1.00;;;;;;5018850;28;20286;-82
2022/07/07 03:12:02;;;;;;;5.30;3.87;;;19.00;1.00;;;;;;5018929;28;20194;-81
2022/07/07 03:14:27;;;;;;;4.53;3.70;;;19.00;1.00;;;;;;5014625;28;20179;-82
2022/07/07 03:16:53;;;;;;;4.53;3.73;;;19.00;1.00;;;;;;5018212;28;20197;-81
2022/07/07 03:19:18;;;;;;;5.30;4.30;;;19.00;1.00;;;;;;5017340;28;20190;-81
2022/07/07 03:21:44;;;;;;;4.80;4.20;;;19.00;1.00;;;;;;5019745;28;20200;-81
2022/07/07 03:24:09;;;;;;;6.20;3.60;;;19.00;1.00;;;;;;5017542;28;20359;-81
2022/07/07 03:26:35;;;;;;;8.53;4.20;;;19.10;1.00;;;;;;5019306;28;20203;-82
2022/07/07 03:29:00;;;;;;;5.33;4.20;;;19.10;1.00;;;;;;5014445;28;20209;-81
2022/07/07 03:31:26;;;;;;;6.67;4.03;;;19.10;99.90;;;;;;5017206;28;20530;-83
2022/07/07 03:33:51;;;;;;;5.73;4.03;;;19.00;99.90;;;;;;5019921;28;20183;-83
2022/07/07 03:36:17;;;;;;;7.00;5.10;;;19.00;4.80;;;;;;5018748;28;20206;-81
2022/07/07 03:38:42;;;;;;;5.07;4.53;;;18.90;99.90;;;;;;5019325;28;20263;-83
2022/07/07 03:41:08;;;;;;;5.70;4.40;;;18.90;99.90;;;;;;5017464;28;20618;-83
2022/07/07 03:43:34;;;;;;;6.73;4.07;;;18.90;1.00;;;;;;5023269;28;20675;-82
2022/07/07 03:45:59;;;;;;;5.30;4.47;;;18.80;1.00;;;;;;5012542;28;20217;-82
2022/07/07 03:48:25;;;;;;;5.17;4.60;;;18.80;50.30;;;;;;5018357;28;20257;-81
2022/07/07 03:50:50;;;;;;;6.00;4.07;;;18.80;99.90;;;;;;5018690;28;20290;-81
2022/07/07 03:53:17;;;;;;;4.30;3.90;;;18.80;99.90;;;;;;5014896;28;20263;-83
2022/07/07 03:55:42;;;;;;;8.77;5.13;;;18.80;99.90;;;;;;5017810;28;20467;-82
2022/07/07 03:58:08;;;;;;;4.10;3.70;;;18.80;99.90;;;;;;5094866;22;20607;-87
2022/07/07 04:00:33;;;;;;;9.07;4.43;;;18.80;99.90;;;;;;5040837;28;20227;-87
2022/07/07 04:02:59;;;;;;;7.07;3.63;;;18.80;99.90;;;;;;5042015;28;20179;-88
2022/07/07 04:05:25;;;;;;;3.40;3.10;;;18.90;99.90;;;;;;5031583;28;20183;-87
2022/07/07 04:07:50;;;;;;;6.67;4.20;;;18.90;99.90;;;;;;5011188;28;20562;-86
2022/07/07 04:10:16;;;;;;;4.77;3.30;;;18.90;99.90;;;;;;4999364;28;20225;-87
2022/07/07 04:12:41;;;;;;;8.27;3.80;;;18.80;99.90;;;;;;5010816;28;20208;-87
2022/07/07 04:15:07;;;;;;;8.60;4.90;;;18.90;99.90;;;;;;5013567;28;20563;-87
2022/07/07 04:17:33;;;;;;;5.17;3.40;;;18.90;99.90;;;;;;5012060;28;20717;-86
2022/07/07 04:20:04;;;;;;;4.47;3.60;;;18.90;99.90;;;;;;5015768;28;20501;-87
2022/07/07 04:22:30;;;;;;;4.90;3.60;;;18.90;99.90;;;;;;5011364;28;20188;-87
2022/07/07 04:24:56;;;;;;;9.37;3.60;;;18.90;99.90;;;;;;5009606;28;20529;-88
2022/07/07 04:27:23;;;;;;;9.00;3.47;;;18.90;99.90;;;;;;5010883;28;20214;-88
2022/07/07 04:29:49;;;;;;;5.43;3.77;;;18.90;99.90;;;;;;5000784;28;20200;-84
2022/07/07 04:32:15;;;;;;;4.10;3.30;;;18.90;99.90;;;;;;5008397;28;20440;-86
2022/07/07 04:34:40;;;;;;;5.20;3.70;;;18.90;99.90;;;;;;5013443;28;20191;-86
2022/07/07 04:37:06;;;;;;;3.80;3.40;;;18.90;99.90;;;;;;5016785;28;20744;-88
2022/07/07 04:39:31;;;;;;;4.17;3.03;;;18.90;99.90;;;;;;5011893;28;20248;-85
2022/07/07 04:41:57;;;;;;;6.40;3.87;;;18.90;99.90;;;;;;5012996;28;20204;-84
2022/07/07 04:44:23;;;;;;;5.57;4.60;;;18.90;99.90;;;;;;5010064;28;20241;-87
2022/07/07 04:46:48;;;;;;;5.13;3.50;;;18.90;99.90;;;;;;5005598;28;20197;-89
2022/07/07 04:49:14;;;;;;;4.60;3.43;;;18.90;99.90;;;;;;5012375;28;20314;-87
2022/07/07 04:51:42;;;;;;;5.30;3.57;;;18.90;99.90;;;;;;5005117;28;20279;-87
2022/07/07 04:54:08;;;;;;;5.13;3.60;;;18.90;99.90;;;;;;5013422;28;20181;-87
2022/07/07 04:56:33;;;;;;;5.93;3.60;;;18.90;99.90;;;;;;5009981;28;20441;-85
2022/07/07 04:58:59;;;;;;;7.20;3.97;;;19.00;1.00;;;;;;4997142;28;20211;-87
2022/07/07 05:01:25;;;;;;;3.60;3.30;;;19.00;1.00;;;;;;5010905;28;20187;-85
2022/07/07 05:03:50;;;;;;;5.57;3.63;;;19.00;1.00;;;;;;5001484;28;20194;-84
2022/07/07 05:06:16;;;;;;;4.93;4.40;;;19.10;99.60;;;;;;5006829;28;20841;-85
2022/07/07 05:08:41;;;;;;;8.10;4.07;;;19.10;1.00;;;;;;5003731;28;20207;-85
2022/07/07 05:11:07;;;;;;;7.70;5.17;;;19.00;1.00;;;;;;5008596;28;20215;-84
2022/07/07 05:13:33;;;;;;;6.40;4.17;;;19.00;99.90;;;;;;5008974;28;20193;-84
2022/07/07 05:15:59;;;;;;;9.30;5.00;;;19.10;6.50;;;;;;5011525;28;20194;-87
2022/07/07 05:18:24;;;;;;;8.80;5.10;;;19.10;1.00;;;;;;5009283;28;20460;-87
2022/07/07 05:20:50;;;;;;;5.87;5.27;;;19.00;99.90;;;;;;5009455;28;20195;-84
2022/07/07 05:23:15;;;;;;;7.87;5.20;;;19.00;1.00;;;;;;5008884;28;20268;-84
2022/07/07 05:25:41;;;;;;;8.97;6.10;;;18.90;48.50;;;;;;5011501;28;20565;-87
2022/07/07 05:28:07;;;;;;;8.90;6.70;;;18.80;99.90;;;;;;5010507;28;20208;-87
2022/07/07 05:30:32;;;;;;;7.00;6.13;;;18.70;1.00;;;;;;5015034;28;20214;-85
2022/07/07 05:32:58;;;;;;;6.67;6.00;;;18.70;1.00;;;;;;5014337;28;20195;-90
2022/07/07 05:35:23;;;;;;;8.30;5.97;;;18.50;99.90;;;;;;5011416;28;20306;-89
2022/07/07 05:37:49;;;;;;;7.90;6.60;;;18.40;99.90;;;;;;5015511;28;20290;-87
2022/07/07 05:40:14;;;;;;;7.90;7.10;;;18.30;99.90;;;;;;5033888;28;20344;-87
2022/07/07 05:42:40;;;;;;;10.03;9.10;;;18.20;99.90;;;;;;5021930;28;20193;-87
2022/07/07 05:45:06;;;;;;;10.70;9.70;;;18.10;99.90;;;;;;5020265;28;20175;-86
2022/07/07 05:47:32;;;;;;;10.93;9.80;;;18.00;1.00;;;;;;5023624;28;20198;-86
2022/07/07 05:49:57;;;;;;;10.97;9.87;;;18.10;1.00;;;;;;5011970;28;20534;-86
2022/07/07 05:52:23;;;;;;;9.77;7.63;;;18.20;1.00;;;;;;5016430;28;20233;-85
2022/07/07 05:54:48;;;;;;;8.50;7.10;;;18.30;99.90;;;;;;5019516;28;20251;-87
2022/07/07 05:57:14;;;;;;;8.00;6.90;;;18.30;99.90;;;;;;5018313;28;20239;-87
2022/07/07 05:59:41;;;;;;;11.07;5.27;;;18.40;99.90;;;;;;5014109;28;20213;-87
2022/07/07 06:02:06;;;;;;;4.90;4.40;;;18.50;99.90;;;;;;5014874;28;20184;-85
2022/07/07 06:04:32;;;;;;;5.10;4.50;;;18.60;99.90;;;;;;5010760;28;20459;-86
2022/07/07 06:06:58;;;;;;;6.53;5.20;;;18.80;99.90;;;;;;5017119;28;20188;-87
2022/07/07 06:09:24;;;;;;;5.77;4.10;;;19.00;99.90;;;;;;5013139;28;20187;-86
2022/07/07 06:11:50;;;;;;;7.00;4.83;;;19.30;99.90;;;;;;5022049;28;20190;-85
2022/07/07 06:14:16;;;;;;;6.63;4.40;;;19.40;1.00;;;;;;5024875;28;20211;-85
2022/07/07 06:16:41;;;;;;;4.23;3.70;;;19.30;1.00;;;;;;5013107;28;20906;-86
2022/07/07 06:19:12;;;;;;;4.23;3.83;;;19.30;1.00;;;;;;5013647;28;20537;-88
2022/07/07 06:21:39;;;;;;;6.53;3.53;;;19.50;99.90;;;;;;5010134;28;20192;-86
2022/07/07 06:24:06;;;;;;;4.57;4.03;;;19.80;1.00;;;;;;5012468;28;20522;-86
2022/07/07 06:26:32;;;;;;;6.13;4.47;;;19.70;1.00;;;;;;5013895;28;20858;-86
2022/07/07 06:28:58;;;;;;;4.20;3.50;;;19.60;99.90;;;;;;5008656;28;20491;-86
2022/07/07 06:31:23;;;;;;;4.30;3.90;;;19.60;99.90;;;;;;5006636;28;20236;-87
2022/07/07 06:33:49;;;;;;;3.73;3.43;;;19.70;99.90;;;;;;5011306;28;20180;-86
2022/07/07 06:36:15;;;;;;;5.47;4.10;;;19.60;99.90;;;;;;5005407;28;20187;-85
2022/07/07 06:38:41;;;;;;;6.77;4.27;;;19.60;99.90;;;;;;5012651;28;20245;-85
2022/07/07 06:41:06;;;;;;;5.57;4.03;;;19.80;99.90;;;;;;5010186;28;20221;-89
2022/07/07 06:43:32;;;;;;;3.67;3.23;;;20.90;99.90;;;;;;5013292;28;20191;-89
2022/07/07 06:45:58;;;;;;;5.37;3.40;;;22.10;1.00;;;;;;5012696;28;20438;-85
2022/07/07 06:48:24;;;;;;;3.67;3.30;;;22.30;1.00;;;;;;5011377;28;20225;-84
2022/07/07 06:50:52;;;;;;;4.30;3.17;;;22.80;99.90;;;;;;5014068;28;20563;-85
2022/07/07 06:53:27;;;;;;;4.80;3.80;;;22.60;99.90;;;;;;5010274;28;20545;-85
2022/07/07 06:55:53;;;;;;;5.60;3.80;;;22.40;99.90;;;;;;5011968;28;20433;-87
2022/07/07 06:58:18;;;;;;;4.23;3.60;;;22.80;99.90;;;;;;5010422;28;20472;-90
2022/07/07 07:00:44;;;;;;;4.43;4.00;;;22.60;92.70;;;;;;5017514;28;20300;-85
2022/07/07 07:03:10;;;;;;;6.53;3.20;;;22.30;99.90;;;;;;5026237;28;20278;-87
2022/07/07 07:05:35;;;;;;;3.70;3.10;;;22.20;99.90;;;;;;5014550;28;20459;-88
2022/07/07 07:08:04;;;;;;;4.00;2.67;;;22.10;99.90;;;;;;5015757;28;20607;-87
2022/07/07 07:10:30;;;;;;;5.20;2.70;;;21.70;99.90;;;;;;5010246;28;20179;-88
2022/07/07 07:12:55;;;;;;;3.40;2.10;;;21.60;99.90;;;;;;5013500;28;20462;-87
2022/07/07 07:15:21;;;;;;;3.50;2.43;;;21.70;99.90;;;;;;5011156;28;20186;-87
2022/07/07 07:17:47;;;;;;;2.07;1.87;;;22.00;99.90;;;;;;5015631;28;20293;-87
2022/07/07 07:20:14;;;;;;;3.00;1.57;;;22.90;1.00;;;;;;5011500;28;20202;-88
2022/07/07 07:22:40;;;;;;;7.90;1.70;;;22.70;1.00;;;;;;5009235;28;20198;-87
2022/07/07 07:25:07;;;;;;;4.80;2.20;;;22.10;1.00;;;;;;5013442;28;20435;-93
2022/07/07 07:27:34;;;;;;;2.37;1.73;;;21.70;1.00;;;;;;5012499;28;20456;-87
2022/07/07 07:29:59;;;;;;;2.57;1.97;;;21.80;1.00;;;;;;5011905;28;20534;-88
2022/07/07 07:32:30;;;;;;;3.00;1.20;;;21.80;1.00;;;;;;5015082;28;21083;-84
2022/07/07 07:34:56;;;;;;;2.23;1.33;;;21.80;1.00;;;;;;5009796;28;20195;-88
2022/07/07 07:37:24;;;;;;;3.20;1.07;;;21.50;1.00;;;;;;5015410;28;20488;-85
2022/07/07 07:39:50;;;;;;;2.97;1.00;;;22.50;1.00;;;;;;5025533;28;20239;-87
2022/07/07 07:42:15;;;;;;;3.30;1.30;;;25.60;1.00;;;;;;5009075;28;20837;-85
2022/07/07 07:47:25;;;;;;;1.50;0.90;;;28.80;99.90;;;;;;5011817;28;20214;-85
2022/07/07 07:49:51;;;;;;;3.30;1.00;;;31.00;99.90;;;;;;5013282;28;20423;-86
2022/07/07 07:52:16;;;;;;;3.57;1.00;;;32.20;99.90;;;;;;5013913;28;20187;-85
2022/07/07 07:54:42;;;;;;;2.00;0.83;;;32.30;99.90;;;;;;5009234;28;20670;-86
2022/07/07 07:57:07;;;;;;;3.27;1.00;;;33.40;99.90;;;;;;5007978;28;20230;-85
2022/07/07 07:59:33;;;;;;;2.60;1.10;;;37.60;99.90;;;;;;5011115;28;20542;-86
2022/07/07 08:01:58;;;;;;;4.23;1.00;;;40.70;99.90;;;;;;5011502;28;20226;-86
2022/07/07 08:04:24;;;;;;;1.83;1.00;;;43.00;99.90;;;;;;5024683;28;20194;-84
2022/07/07 08:06:50;;;;;;;2.87;0.80;;;44.00;99.90;;;;;;5002677;28;20191;-88
2022/07/07 08:09:18;;;;;;;3.10;1.03;;;41.90;99.90;;;;;;5006520;28;20214;-86
2022/07/07 08:11:50;;;;;;;3.07;1.40;;;38.80;97.60;;;;;;5011804;28;20675;-87
2022/07/07 08:14:15;;;;;;;4.23;1.40;;;34.50;87.60;;;;;;5011597;28;21011;-84
2022/07/07 08:16:41;;;;;;;3.20;1.30;;;31.60;77.70;;;;;;5019075;28;20520;-84
2022/07/07 08:19:07;;;;;;;3.07;1.27;;;29.20;72.40;;;;;;5011523;28;20203;-87
2022/07/07 08:21:32;;;;;;;6.07;1.50;;;27.30;68.30;;;;;;5011748;28;20179;-84
2022/07/07 08:23:58;;;;;;;5.53;1.80;;;25.80;69.10;;;;;;5013287;28;20193;-83
2022/07/07 08:26:24;;;;;;;4.50;1.63;;;24.30;71.50;;;;;;5011379;28;20198;-84
2022/07/07 08:28:49;;;;;;;5.23;1.87;;;23.10;85.90;;;;;;5013097;28;20206;-85
2022/07/07 08:31:15;;;;;;;5.07;2.03;;;22.20;99.90;;;;;;5009546;28;20221;-85
2022/07/07 08:33:40;;;;;;;4.73;1.60;;;21.60;99.90;;;;;;5009796;28;20783;-84
2022/07/07 08:36:08;;;;;;;6.43;2.40;;;21.30;99.90;;;;;;5010006;28;20270;-83
2022/07/07 08:38:34;;;;;;;5.73;2.43;;;21.40;99.90;;;;;;5016792;28;20215;-83
2022/07/07 08:41:02;;;;;;;6.20;2.13;;;23.60;99.90;;;;;;5007661;28;20450;-83
2022/07/07 08:43:28;;;;;;;4.60;2.37;;;24.10;99.90;;;;;;5005676;28;20272;-84
2022/07/07 08:45:54;;;;;;;6.37;2.17;;;24.00;99.90;;;;;;5002425;28;20438;-84
2022/07/07 08:48:21;;;;;;;8.10;2.60;;;23.70;99.90;;;;;;5002928;28;20586;-83
2022/07/07 08:50:47;;;;;;;5.07;2.50;;;23.80;99.90;;;;;;5005634;28;20233;-84
2022/07/07 08:53:13;;;;;;;5.53;2.00;;;26.40;99.90;;;;;;5003605;28;20808;-86
2022/07/07 08:55:41;;;;;;;2.70;1.30;;;26.40;99.90;;;;;;5007318;28;20183;-82
2022/07/07 08:58:09;;;;;;;3.90;1.47;;;25.80;99.90;;;;;;5009925;28;20473;-85
2022/07/07 09:00:34;;;;;;;2.90;1.33;;;27.10;99.90;;;;;;5011387;28;20843;-84
2022/07/07 09:03:03;;;;;;;5.10;1.50;;;28.40;99.90;;;;;;5005948;28;20443;-86
2022/07/07 09:05:37;;;;;;;6.47;1.80;;;29.30;99.90;;;;;;5005702;28;20219;-85
2022/07/07 09:08:19;;;;;;;8.03;1.30;;;30.70;99.90;;;;;;5009468;28;20469;-85
2022/07/07 09:10:46;;;;;;;3.30;1.17;;;33.50;99.90;;;;;;5020309;28;20469;-85
2022/07/07 09:13:25;;;;;;;3.57;1.17;;;34.50;99.90;;;;;;5004703;28;20426;-88
2022/07/07 09:15:52;;;;;;;2.60;1.20;;;34.60;99.90;;;;;;5007476;28;20925;-84
2022/07/07 09:18:45;;;;;;;1.90;0.80;;;34.60;99.40;;;;;;5007348;28;20462;-85
2022/07/07 09:21:31;;;;;;;4.77;1.50;;;34.70;96.30;;;;;;5003962;28;20434;-84
2022/07/07 09:24:02;;;;;;;2.13;0.80;;;34.00;91.80;;;;;;5003106;28;20441;-84
2022/07/07 09:26:43;;;;;;;2.10;1.17;;;32.70;84.90;;;;;;5001970;28;20430;-84
2022/07/07 09:29:13;;;;;;;4.27;1.27;;;31.90;81.20;;;;;;5009868;28;20527;-84
2022/07/07 09:32:02;;;;;;;4.50;0.93;;;30.40;72.80;;;;;;5009177;28;20525;-84
2022/07/07 09:34:29;;;;;;;1.70;0.93;;;29.30;68.20;;;;;;5002239;28;20449;-84
2022/07/07 09:39:42;;;;;;;5.53;0.93;;;31.60;80.80;;;;;;5008423;28;20521;-84
2022/07/07 09:42:27;;;;;;;1.70;0.70;;;31.10;74.20;;;;;;5011137;28;20867;-85
2022/07/07 09:44:54;;;;;;;3.00;0.70;;;30.00;66.30;;;;;;5004106;28;20437;-84
2022/07/07 09:47:24;;;;;;;2.07;0.90;;;28.60;60.40;;;;;;5008736;28;20457;-86
2022/07/07 09:50:15;;;;;;;4.27;1.60;;;29.30;66.80;;;;;;5004452;28;20498;-84
2022/07/07 09:52:45;;;;;;;2.37;0.80;;;32.70;80.50;;;;;;5002049;28;20941;-86
2022/07/07 09:55:11;;;;;;;3.33;1.00;;;35.10;82.50;;;;;;5004180;28;20437;-84
2022/07/07 09:57:37;;;;;;;1.97;1.03;;;34.60;72.30;;;;;;5009062;28;20465;-85
2022/07/07 10:00:05;;;;;;;4.80;1.10;;;32.80;62.60;;;;;;5008370;28;20437;-85
2022/07/07 10:02:31;;;;;;;3.67;1.20;;;30.90;55.60;;;;;;5011382;28;20508;-84
2022/07/07 10:04:59;;;;;;;5.30;1.03;;;29.00;51.10;;;;;;5021758;28;20542;-84
2022/07/07 10:07:30;;;;;;;3.00;1.00;;;27.20;49.50;;;;;;5010482;28;20210;-83
2022/07/07 10:10:06;;;;;;;2.70;0.90;;;25.70;49.00;;;;;;5010090;28;20469;-84
2022/07/07 10:12:33;;;;;;;2.70;1.00;;;24.30;51.60;;;;;;5009320;28;20506;-85
2022/07/07 10:15:11;;;;;;;4.93;1.03;;;23.60;56.10;;;;;;5017371;28;20445;-85
2022/07/07 10:17:38;;;;;;;2.67;1.03;;;23.20;62.40;;;;;;5013925;28;20472;-83
2022/07/07 10:20:04;;;;;;;1.63;1.00;;;23.00;69.90;;;;;;5014108;28;20532;-83
2022/07/07 10:22:31;;;;;;;4.50;1.07;;;24.20;79.20;;;;;;5012386;28;20461;-84
2022/07/07 10:24:59;;;;;;;1.70;1.10;;;26.90;88.30;;;;;;5011050;28;20497;-86
2022/07/07 10:27:26;;;;;;;2.60;0.97;;;28.00;89.30;;;;;;5015600;28;20459;-84
2022/07/07 10:29:59;;;;;;;1.53;1.40;;;28.20;85.30;;;;;;5015976;28;20466;-84
2022/07/07 10:32:51;;;;;;;4.03;1.10;;;27.80;82.30;;;;;;5018147;28;20451;-85
2022/07/07 10:35:18;;;;;;;1.87;0.93;;;27.30;79.30;;;;;;5025385;28;20433;-84
2022/07/07 10:37:45;;;;;;;2.33;1.13;;;26.40;75.60;;;;;;5010924;28;20449;-84
2022/07/07 10:40:13;;;;;;;1.93;0.90;;;25.60;72.50;;;;;;5010390;28;20440;-83
2022/07/07 10:42:38;;;;;;;4.77;0.83;;;24.90;71.10;;;;;;5009565;28;20449;-82
2022/07/07 10:45:05;;;;;;;3.30;1.10;;;24.10;71.10;;;;;;5007412;28;20439;-84
2022/07/07 10:47:32;;;;;;;1.83;0.70;;;23.90;75.00;;;;;;5005312;28;20215;-83
2022/07/07 10:49:59;;;;;;;2.13;0.70;;;23.70;77.00;;;;;;5010257;28;20492;-82
2022/07/07 10:52:26;;;;;;;1.90;1.00;;;23.90;81.80;;;;;;5008097;28;20439;-83
2022/07/07 10:55:02;;;;;;;3.17;1.10;;;24.30;83.40;;;;;;5005680;28;20533;-84
2022/07/07 10:57:40;;;;;;;4.70;1.20;;;25.60;89.20;;;;;;5007751;28;20472;-84
2022/07/07 11:00:09;;;;;;;6.30;1.50;;;26.60;91.10;;;;;;5025434;28;20523;-83
2022/07/07 11:02:50;;;;;;;3.10;1.00;;;26.70;90.30;;;;;;5006649;28;20429;-84
2022/07/07 11:05:15;;;;;;;2.93;1.20;;;26.40;87.60;;;;;;5011197;28;20434;-84
2022/07/07 11:07:56;;;;;;;3.30;1.50;;;26.00;85.80;;;;;;5009811;28;20563;-84
2022/07/07 11:10:42;;;;;;;2.40;1.00;;;25.60;84.40;;;;;;5008846;28;20195;-85
2022/07/07 11:13:14;;;;;;;2.30;1.10;;;25.40;83.80;;;;;;5004615;28;20885;-84
2022/07/07 11:15:40;;;;;;;3.83;1.30;;;24.90;81.00;;;;;;5022903;28;20440;-83
2022/07/07 11:18:14;;;;;;;3.67;0.80;;;24.30;78.80;;;;;;5008171;28;20459;-83
2022/07/07 11:21:02;;;;;;;1.93;1.10;;;23.80;80.40;;;;;;5008076;28;20599;-82
2022/07/07 11:23:40;;;;;;;2.90;1.20;;;23.30;82.70;;;;;;5020965;28;20485;-82
2022/07/07 11:26:06;;;;;;;2.90;1.10;;;22.90;85.40;;;;;;5003349;28;20437;-82
2022/07/07 11:28:31;;;;;;;4.47;1.10;;;22.60;89.80;;;;;;5007086;28;20541;-83
2022/07/07 11:31:06;;;;;;;6.03;1.33;;;22.30;91.90;;;;;;5005836;28;20197;-84
2022/07/07 11:33:32;;;;;;;1.93;1.30;;;22.00;94.50;;;;;;5005620;28;20204;-85
2022/07/07 11:35:58;;;;;;;3.10;1.20;;;21.80;97.00;;;;;;5008886;28;20443;-84
2022/07/07 11:38:28;;;;;;;2.77;1.30;;;21.80;99.90;;;;;;5018483;28;20500;-82
2022/07/07 11:40:54;;;;;;;2.60;1.20;;;21.80;99.90;;;;;;5003734;28;20297;-84
2022/07/07 11:43:24;;;;;;;2.60;1.30;;;22.00;99.90;;;;;;5004039;28;20537;-84
2022/07/07 11:45:50;;;;;;;2.03;1.00;;;22.60;99.90;;;;;;5007502;28;20443;-84
2022/07/07 11:48:16;;;;;;;3.50;1.10;;;23.20;99.90;;;;;;5007457;28;20448;-83
2022/07/07 11:50:42;;;;;;;4.40;1.30;;;23.60;99.90;;;;;;5008829;28;20524;-84
2022/07/07 11:53:07;;;;;;;2.70;1.03;;;23.50;99.90;;;;;;5006645;28;20207;-84
2022/07/07 11:55:33;;;;;;;3.20;1.27;;;23.00;99.90;;;;;;5003341;28;20593;-85
2022/07/07 11:58:01;;;;;;;3.20;1.00;;;22.50;99.90;;;;;;5007122;28;20255;-86
2022/07/07 12:00:32;;;;;;;3.37;1.13;;;22.20;99.90;;;;;;5010261;28;20469;-84
2022/07/07 12:03:00;;;;;;;4.10;1.57;;;21.90;99.90;;;;;;5008628;28;20462;-83
2022/07/07 12:05:43;;;;;;;5.27;1.30;;;21.60;99.90;;;;;;5007108;28;20425;-86
2022/07/07 12:08:11;;;;;;;4.10;1.40;;;21.60;99.90;;;;;;5005771;28;20545;-84
2022/07/07 12:10:40;;;;;;;3.77;1.47;;;21.50;99.90;;;;;;5006134;28;20447;-84
2022/07/07 12:13:11;;;;;;;4.30;1.57;;;21.40;99.90;;;;;;5007463;28;20444;-84
2022/07/07 12:15:48;;;;;;;3.50;1.10;;;21.40;99.90;;;;;;5008207;28;20880;-84
2022/07/07 12:18:30;;;;;;;3.20;1.10;;;21.60;99.90;;;;;;5002104;28;21027;-82
2022/07/07 12:20:58;;;;;;;3.20;1.10;;;22.20;99.90;;;;;;5008004;28;20481;-84
2022/07/07 12:23:23;;;;;;;2.20;1.00;;;22.80;99.90;;;;;;5005185;28;20528;-85
2022/07/07 12:26:04;;;;;;;1.60;0.80;;;23.10;99.90;;;;;;5007217;28;20885;-85
2022/07/07 12:28:35;;;;;;;1.63;0.80;;;23.30;99.90;;;;;;5005249;28;20205;-83
2022/07/07 12:31:01;;;;;;;1.83;1.00;;;23.30;99.90;;;;;;5006058;28;20434;-83
2022/07/07 12:33:30;;;;;;;2.03;0.80;;;23.00;99.90;;;;;;5001675;28;20441;-82
2022/07/07 12:36:15;;;;;;;2.53;0.83;;;22.80;99.90;;;;;;5008141;28;20448;-84
2022/07/07 12:38:57;;;;;;;4.67;1.30;;;22.50;99.90;;;;;;5005581;28;20470;-82
2022/07/07 12:41:37;;;;;;;2.50;1.20;;;22.20;99.90;;;;;;5010759;28;20991;-82
2022/07/07 12:44:15;;;;;;;2.47;1.40;;;21.90;99.90;;;;;;5002640;28;20968;-81
2022/07/07 12:46:41;;;;;;;2.90;1.10;;;21.70;99.90;;;;;;5011642;28;20432;-82
2022/07/07 12:49:10;;;;;;;1.93;1.10;;;21.50;99.90;;;;;;5001250;28;20458;-83
2022/07/07 12:51:44;;;;;;;1.63;1.17;;;21.50;99.90;;;;;;5010306;28;20851;-82
2022/07/07 12:54:27;;;;;;;2.43;1.10;;;21.70;99.90;;;;;;5011922;28;20528;-83
2022/07/07 12:56:57;;;;;;;4.10;1.77;;;22.10;99.90;;;;;;5008299;28;20952;-82